sensor_id;sensor_type;location;lat;lon;timestamp;pressure;altitude;pressure_sealevel;temperature;humidity
19576;BME280;41589;51.196;7.074;2022-07-06T00:00:37;99824.56;;;16.64;50.34
19576;BME280;41589;51.196;7.074;2022-07-06T00:05:38;99811.19;;;16.40;50.35
19576;BME280;41589;51.196;7.074;2022-07-06T00:10:39;99822.34;;;16.29;50.46
19576;BME280;41589;51.196;7.074;2022-07-06T00:15:39;99826.16;;;16.26;50.68
19576;BME280;41589;51.196;7.074;2022-07-06T00:20:40;99828.16;;;16.11;50.70
19576;BME280;41589;51.196;7.074;2022-07-06T00:25:41;99823.16;;;16.06;50.95
19576;BME280;41589;51.196;7.074;2022-07-06T00:30:41;99834.22;;;16.04;50.96
19576;BME280;41589;51.196;7.074;2022-07-06T00:35:42;99830.25;;;16.01;51.04
19576;BME280;41589;51.196;7.074;2022-07-06T00:40:43;99815.28;;;16.01;51.04
19576;BME280;41589;51.196;7.074;2022-07-06T00:45:43;99824.19;;;15.94;50.97
19576;BME280;41589;51.196;7.074;2022-07-06T00:50:44;99829.72;;;15.88;51.21
19576;BME280;41589;51.196;7.074;2022-07-06T00:55:45;99828.03;;;15.81;50.80
19576;BME280;41589;51.196;7.074;2022-07-06T01:00:45;99830.56;;;15.79;50.98
19576;BME280;41589;51.196;7.074;2022-07-06T01:05:46;99839.72;;;15.83;51.09
19576;BME280;41589;51.196;7.074;2022-07-06T01:10:46;99832.63;;;15.79;50.73
19576;BME280;41589;51.196;7.074;2022-07-06T01:15:47;99831.41;;;15.71;51.05
19576;BME280;41589;51.196;7.074;2022-07-06T01:20:47;99829.91;;;15.51;51.38
19576;BME280;41589;51.196;7.074;2022-07-06T01:25:48;99831.63;;;15.49;51.98
19576;BME280;41589;51.196;7.074;2022-07-06T01:30:48;99826.75;;;15.49;51.94
19576;BME280;41589;51.196;7.074;2022-07-06T01:35:49;99837.97;;;15.44;51.90
19576;BME280;41589;51.196;7.074;2022-07-06T01:40:50;99838.13;;;15.40;52.14
19576;BME280;41589;51.196;7.074;2022-07-06T01:45:51;99829.31;;;15.38;52.12
19576;BME280;41589;51.196;7.074;2022-07-06T01:50:51;99825.91;;;15.25;52.60
19576;BME280;41589;51.196;7.074;2022-07-06T01:55:52;99823.88;;;15.25;52.51
19576;BME280;41589;51.196;7.074;2022-07-06T02:00:53;99820.09;;;15.19;52.51
19576;BME280;41589;51.196;7.074;2022-07-06T02:05:53;99826.72;;;15.16;52.90
19576;BME280;41589;51.196;7.074;2022-07-06T02:10:55;99821.06;;;15.16;52.70
19576;BME280;41589;51.196;7.074;2022-07-06T02:15:56;99826.91;;;15.13;52.74
19576;BME280;41589;51.196;7.074;2022-07-06T02:20:56;99834.47;;;15.07;53.20
19576;BME280;41589;51.196;7.074;2022-07-06T02:25:57;99828.03;;;15.06;53.26
19576;BME280;41589;51.196;7.074;2022-07-06T02:30:59;99831.16;;;15.08;53.29
19576;BME280;41589;51.196;7.074;2022-07-06T02:36:01;99836.97;;;15.14;53.18
19576;BME280;41589;51.196;7.074;2022-07-06T02:41:02;99824.56;;;15.11;53.15
19576;BME280;41589;51.196;7.074;2022-07-06T02:46:03;99823.63;;;15.05;53.30
19576;BME280;41589;51.196;7.074;2022-07-06T02:51:03;99811.94;;;15.12;53.19
19576;BME280;41589;51.196;7.074;2022-07-06T02:56:04;99823.28;;;15.12;53.17
19576;BME280;41589;51.196;7.074;2022-07-06T03:01:07;99831.78;;;15.12;53.59
19576;BME280;41589;51.196;7.074;2022-07-06T03:06:09;99827.50;;;15.17;53.34
19576;BME280;41589;51.196;7.074;2022-07-06T03:11:10;99830.84;;;15.15;53.69
19576;BME280;41589;51.196;7.074;2022-07-06T03:16:11;99843.44;;;15.14;53.75
19576;BME280;41589;51.196;7.074;2022-07-06T03:21:12;99838.56;;;15.15;53.76
19576;BME280;41589;51.196;7.074;2022-07-06T03:26:13;99828.78;;;15.16;53.64
19576;BME280;41589;51.196;7.074;2022-07-06T03:31:13;99847.84;;;15.15;53.61
19576;BME280;41589;51.196;7.074;2022-07-06T03:36:14;99845.97;;;15.12;53.87
19576;BME280;41589;51.196;7.074;2022-07-06T03:41:16;99850.84;;;15.12;53.83
19576;BME280;41589;51.196;7.074;2022-07-06T03:46:17;99843.13;;;15.12;53.92
19576;BME280;41589;51.196;7.074;2022-07-06T03:51:17;99829.25;;;15.14;53.91
19576;BME280;41589;51.196;7.074;2022-07-06T03:56:18;99836.19;;;15.13;53.90
19576;BME280;41589;51.196;7.074;2022-07-06T04:01:38;99837.19;;;15.01;54.05
19576;BME280;41589;51.196;7.074;2022-07-06T04:06:39;99848.66;;;14.97;54.12
19576;BME280;41589;51.196;7.074;2022-07-06T04:11:40;99844.44;;;14.93;54.70
19576;BME280;41589;51.196;7.074;2022-07-06T04:16:42;99849.31;;;15.01;54.82
19576;BME280;41589;51.196;7.074;2022-07-06T04:21:43;99843.44;;;15.14;54.62
19576;BME280;41589;51.196;7.074;2022-07-06T04:26:43;99837.25;;;15.25;54.58
19576;BME280;41589;51.196;7.074;2022-07-06T04:31:44;99847.78;;;15.34;54.23
19576;BME280;41589;51.196;7.074;2022-07-06T04:36:45;99855.63;;;15.39;54.37
19576;BME280;41589;51.196;7.074;2022-07-06T04:41:46;99862.53;;;15.47;54.50
19576;BME280;41589;51.196;7.074;2022-07-06T04:46:46;99856.75;;;15.41;54.19
19576;BME280;41589;51.196;7.074;2022-07-06T04:51:47;99863.06;;;15.36;54.50
19576;BME280;41589;51.196;7.074;2022-07-06T04:56:48;99862.47;;;15.23;54.68
19576;BME280;41589;51.196;7.074;2022-07-06T05:01:49;99863.59;;;15.16;55.36
19576;BME280;41589;51.196;7.074;2022-07-06T05:06:50;99858.16;;;15.37;55.47
19576;BME280;41589;51.196;7.074;2022-07-06T05:11:50;99867.44;;;15.46;55.42
19576;BME280;41589;51.196;7.074;2022-07-06T05:16:51;99864.03;;;15.66;55.42
19576;BME280;41589;51.196;7.074;2022-07-06T05:21:52;99860.84;;;15.82;55.43
19576;BME280;41589;51.196;7.074;2022-07-06T05:26:52;99870.25;;;15.88;55.05
19576;BME280;41589;51.196;7.074;2022-07-06T05:31:53;99862.13;;;16.05;55.05
19576;BME280;41589;51.196;7.074;2022-07-06T05:36:54;99866.63;;;16.12;54.34
19576;BME280;41589;51.196;7.074;2022-07-06T05:41:54;99866.25;;;16.04;54.73
19576;BME280;41589;51.196;7.074;2022-07-06T05:46:55;99869.06;;;16.28;54.59
19576;BME280;41589;51.196;7.074;2022-07-06T05:52:17;99872.63;;;16.38;54.05
19576;BME280;41589;51.196;7.074;2022-07-06T05:57:18;99872.56;;;16.47;53.98
19576;BME280;41589;51.196;7.074;2022-07-06T06:02:18;99874.16;;;16.63;54.25
19576;BME280;41589;51.196;7.074;2022-07-06T06:07:19;99881.84;;;16.71;53.30
19576;BME280;41589;51.196;7.074;2022-07-06T06:12:19;99887.16;;;16.55;53.04
19576;BME280;41589;51.196;7.074;2022-07-06T06:17:20;99899.28;;;16.40;53.38
19576;BME280;41589;51.196;7.074;2022-07-06T06:22:20;99893.03;;;16.75;53.52
19576;BME280;41589;51.196;7.074;2022-07-06T06:27:21;99897.69;;;17.17;52.96
19576;BME280;41589;51.196;7.074;2022-07-06T06:32:21;99899.25;;;17.32;52.47
19576;BME280;41589;51.196;7.074;2022-07-06T06:37:22;99901.41;;;17.67;51.84
19576;BME280;41589;51.196;7.074;2022-07-06T06:42:22;99900.69;;;17.87;51.33
19576;BME280;41589;51.196;7.074;2022-07-06T06:47:25;99900.59;;;17.81;51.10
19576;BME280;41589;51.196;7.074;2022-07-06T06:52:25;99900.28;;;17.94;50.58
19576;BME280;41589;51.196;7.074;2022-07-06T06:57:26;99903.75;;;17.69;50.39
19576;BME280;41589;51.196;7.074;2022-07-06T07:02:26;99906.72;;;17.45;50.32
19576;BME280;41589;51.196;7.074;2022-07-06T07:07:26;99908.19;;;17.25;50.90
19576;BME280;41589;51.196;7.074;2022-07-06T07:12:27;99915.44;;;17.12;51.23
19576;BME280;41589;51.196;7.074;2022-07-06T07:17:27;99919.75;;;17.22;51.13
19576;BME280;41589;51.196;7.074;2022-07-06T07:22:28;99925.91;;;17.06;50.69
19576;BME280;41589;51.196;7.074;2022-07-06T07:27:28;99921.00;;;17.06;50.47
19576;BME280;41589;51.196;7.074;2022-07-06T07:32:29;99919.06;;;17.12;50.50
19576;BME280;41589;51.196;7.074;2022-07-06T07:37:29;99920.44;;;17.31;49.77
19576;BME280;41589;51.196;7.074;2022-07-06T07:42:29;99930.66;;;17.53;50.10
19576;BME280;41589;51.196;7.074;2022-07-06T07:47:30;99918.69;;;17.49;48.69
19576;BME280;41589;51.196;7.074;2022-07-06T07:52:30;99917.88;;;17.48;49.21
19576;BME280;41589;51.196;7.074;2022-07-06T07:57:31;99920.56;;;17.67;48.23
19576;BME280;41589;51.196;7.074;2022-07-06T08:02:31;99924.56;;;17.75;47.53
19576;BME280;41589;51.196;7.074;2022-07-06T08:07:32;99920.22;;;17.79;47.36
19576;BME280;41589;51.196;7.074;2022-07-06T08:12:33;99925.00;;;18.03;47.59
19576;BME280;41589;51.196;7.074;2022-07-06T08:17:33;99920.56;;;18.37;46.77
19576;BME280;41589;51.196;7.074;2022-07-06T08:22:36;99920.31;;;18.75;45.46
19576;BME280;41589;51.196;7.074;2022-07-06T08:27:37;99916.00;;;18.86;43.86
19576;BME280;41589;51.196;7.074;2022-07-06T08:32:41;99909.25;;;19.35;44.61
19576;BME280;41589;51.196;7.074;2022-07-06T08:37:42;99896.75;;;19.90;43.36
19576;BME280;41589;51.196;7.074;2022-07-06T08:42:43;99899.53;;;19.84;42.09
19576;BME280;41589;51.196;7.074;2022-07-06T08:47:48;99903.53;;;19.98;42.75
19576;BME280;41589;51.196;7.074;2022-07-06T08:52:49;99908.16;;;20.27;41.58
19576;BME280;41589;51.196;7.074;2022-07-06T08:57:51;99914.00;;;20.55;41.06
19576;BME280;41589;51.196;7.074;2022-07-06T09:02:51;99912.09;;;20.95;39.14
19576;BME280;41589;51.196;7.074;2022-07-06T09:07:55;99915.47;;;20.99;38.26
19576;BME280;41589;51.196;7.074;2022-07-06T09:13:07;99914.22;;;21.17;38.77
19576;BME280;41589;51.196;7.074;2022-07-06T09:18:08;99906.19;;;21.43;36.80
19576;BME280;41589;51.196;7.074;2022-07-06T09:23:08;99904.09;;;22.00;36.25
19576;BME280;41589;51.196;7.074;2022-07-06T09:28:09;99906.16;;;22.10;34.86
19576;BME280;41589;51.196;7.074;2022-07-06T09:33:09;99904.25;;;22.52;33.33
19576;BME280;41589;51.196;7.074;2022-07-06T09:38:13;99900.84;;;22.54;34.04
19576;BME280;41589;51.196;7.074;2022-07-06T09:43:21;99899.72;;;22.73;31.99
19576;BME280;41589;51.196;7.074;2022-07-06T09:48:26;99892.31;;;22.95;31.79
19576;BME280;41589;51.196;7.074;2022-07-06T09:53:27;99901.50;;;22.82;29.88
19576;BME280;41589;51.196;7.074;2022-07-06T09:58:28;99900.13;;;22.94;30.94
19576;BME280;41589;51.196;7.074;2022-07-06T10:03:29;99897.31;;;22.83;29.53
19576;BME280;41589;51.196;7.074;2022-07-06T10:08:30;99902.22;;;22.36;30.73
19576;BME280;41589;51.196;7.074;2022-07-06T10:13:33;99903.72;;;22.48;31.58
19576;BME280;41589;51.196;7.074;2022-07-06T10:18:34;99907.69;;;22.39;31.76
19576;BME280;41589;51.196;7.074;2022-07-06T10:23:35;99901.75;;;22.04;30.97
19576;BME280;41589;51.196;7.074;2022-07-06T10:28:37;99907.47;;;22.04;30.82
19576;BME280;41589;51.196;7.074;2022-07-06T10:33:39;99896.22;;;22.34;31.78
19576;BME280;41589;51.196;7.074;2022-07-06T10:38:48;99898.84;;;22.21;31.44
19576;BME280;41589;51.196;7.074;2022-07-06T10:43:49;99906.44;;;21.96;31.68
19576;BME280;41589;51.196;7.074;2022-07-06T10:48:49;99903.03;;;22.19;31.99
19576;BME280;41589;51.196;7.074;2022-07-06T10:54:04;99896.22;;;22.34;32.26
19576;BME280;41589;51.196;7.074;2022-07-06T10:59:09;99889.72;;;22.16;31.87
19576;BME280;41589;51.196;7.074;2022-07-06T11:04:11;99895.28;;;21.81;32.40
19576;BME280;41589;51.196;7.074;2022-07-06T11:09:11;99897.84;;;21.96;32.50
19576;BME280;41589;51.196;7.074;2022-07-06T11:14:18;99900.16;;;22.14;32.51
19576;BME280;41589;51.196;7.074;2022-07-06T11:19:22;99895.97;;;22.15;32.39
19576;BME280;41589;51.196;7.074;2022-07-06T11:24:28;99893.16;;;22.04;32.16
19576;BME280;41589;51.196;7.074;2022-07-06T11:29:30;99889.97;;;22.24;31.72
19576;BME280;41589;51.196;7.074;2022-07-06T11:34:33;99876.72;;;22.04;32.43
19576;BME280;41589;51.196;7.074;2022-07-06T11:39:41;99883.22;;;22.16;33.13
19576;BME280;41589;51.196;7.074;2022-07-06T11:44:42;99880.03;;;22.36;31.37
19576;BME280;41589;51.196;7.074;2022-07-06T11:49:43;99882.16;;;22.25;31.87
19576;BME280;41589;51.196;7.074;2022-07-06T11:54:46;99882.41;;;22.27;31.37
19576;BME280;41589;51.196;7.074;2022-07-06T11:59:46;99886.06;;;22.33;32.22
19576;BME280;41589;51.196;7.074;2022-07-06T12:04:49;99886.31;;;22.35;31.45
19576;BME280;41589;51.196;7.074;2022-07-06T12:09:50;99887.38;;;22.32;31.54
19576;BME280;41589;51.196;7.074;2022-07-06T12:14:52;99886.13;;;21.99;31.67
19576;BME280;41589;51.196;7.074;2022-07-06T12:19:53;99884.84;;;21.72;32.41
19576;BME280;41589;51.196;7.074;2022-07-06T12:24:56;99881.97;;;21.33;32.93
19576;BME280;41589;51.196;7.074;2022-07-06T12:30:08;99876.25;;;21.27;33.48
19576;BME280;41589;51.196;7.074;2022-07-06T12:35:09;99861.13;;;21.44;33.57
19576;BME280;41589;51.196;7.074;2022-07-06T12:40:12;99862.19;;;21.57;34.20
19576;BME280;41589;51.196;7.074;2022-07-06T12:45:13;99860.38;;;21.71;33.64
19576;BME280;41589;51.196;7.074;2022-07-06T12:50:13;99849.63;;;22.05;33.59
19576;BME280;41589;51.196;7.074;2022-07-06T12:55:14;99843.59;;;22.20;33.47
19576;BME280;41589;51.196;7.074;2022-07-06T13:00:17;99842.56;;;22.12;33.01
19576;BME280;41589;51.196;7.074;2022-07-06T13:05:17;99838.59;;;22.26;33.27
19576;BME280;41589;51.196;7.074;2022-07-06T13:10:18;99840.44;;;22.29;32.56
19576;BME280;41589;51.196;7.074;2022-07-06T13:15:19;99841.31;;;22.07;33.03
19576;BME280;41589;51.196;7.074;2022-07-06T13:20:19;99835.28;;;22.11;33.14
19576;BME280;41589;51.196;7.074;2022-07-06T13:25:20;99836.06;;;22.06;33.16
19576;BME280;41589;51.196;7.074;2022-07-06T13:30:20;99826.19;;;22.01;33.60
19576;BME280;41589;51.196;7.074;2022-07-06T13:35:21;99828.22;;;22.17;33.90
19576;BME280;41589;51.196;7.074;2022-07-06T13:40:22;99823.69;;;22.44;34.44
19576;BME280;41589;51.196;7.074;2022-07-06T13:45:22;99819.66;;;22.12;33.86
19576;BME280;41589;51.196;7.074;2022-07-06T13:50:23;99819.16;;;22.08;33.95
19576;BME280;41589;51.196;7.074;2022-07-06T13:55:25;99811.22;;;22.42;33.94
19576;BME280;41589;51.196;7.074;2022-07-06T14:00:26;99814.88;;;22.84;33.76
19576;BME280;41589;51.196;7.074;2022-07-06T14:05:28;99796.66;;;22.75;32.65
19576;BME280;41589;51.196;7.074;2022-07-06T14:10:30;99811.16;;;22.47;32.70
19576;BME280;41589;51.196;7.074;2022-07-06T14:15:30;99815.16;;;22.33;33.14
19576;BME280;41589;51.196;7.074;2022-07-06T14:20:30;99804.16;;;22.37;33.73
19576;BME280;41589;51.196;7.074;2022-07-06T14:25:31;99800.22;;;22.46;33.68
19576;BME280;41589;51.196;7.074;2022-07-06T14:30:35;99801.25;;;22.48;33.08
19576;BME280;41589;51.196;7.074;2022-07-06T14:35:42;99781.00;;;22.76;34.36
19576;BME280;41589;51.196;7.074;2022-07-06T14:40:42;99785.41;;;22.83;33.01
19576;BME280;41589;51.196;7.074;2022-07-06T14:45:44;99778.53;;;22.56;33.72
19576;BME280;41589;51.196;7.074;2022-07-06T14:50:45;99775.63;;;22.62;34.00
19576;BME280;41589;51.196;7.074;2022-07-06T14:55:46;99781.38;;;22.62;32.62
19576;BME280;41589;51.196;7.074;2022-07-06T15:00:47;99780.84;;;22.58;33.38
19576;BME280;41589;51.196;7.074;2022-07-06T15:05:48;99769.59;;;22.65;33.37
19576;BME280;41589;51.196;7.074;2022-07-06T15:10:48;99764.69;;;22.96;32.96
19576;BME280;41589;51.196;7.074;2022-07-06T15:15:49;99764.16;;;22.97;32.42
19576;BME280;41589;51.196;7.074;2022-07-06T15:20:49;99756.31;;;22.98;32.06
19576;BME280;41589;51.196;7.074;2022-07-06T15:25:50;99757.97;;;22.88;32.58
19576;BME280;41589;51.196;7.074;2022-07-06T15:30:50;99759.69;;;22.66;32.76
19576;BME280;41589;51.196;7.074;2022-07-06T15:35:51;99754.88;;;22.80;33.26
19576;BME280;41589;51.196;7.074;2022-07-06T15:40:51;99745.34;;;22.66;33.62
19576;BME280;41589;51.196;7.074;2022-07-06T15:46:03;99742.31;;;22.53;33.40
19576;BME280;41589;51.196;7.074;2022-07-06T15:51:04;99735.91;;;22.25;33.65
19576;BME280;41589;51.196;7.074;2022-07-06T15:56:05;99732.38;;;22.07;34.25
19576;BME280;41589;51.196;7.074;2022-07-06T16:01:06;99732.16;;;21.94;34.23
19576;BME280;41589;51.196;7.074;2022-07-06T16:06:07;99723.56;;;21.94;34.45
19576;BME280;41589;51.196;7.074;2022-07-06T16:11:08;99715.72;;;22.00;34.20
19576;BME280;41589;51.196;7.074;2022-07-06T16:16:10;99711.41;;;22.29;34.13
19576;BME280;41589;51.196;7.074;2022-07-06T16:21:10;99706.66;;;22.37;33.90
19576;BME280;41589;51.196;7.074;2022-07-06T16:26:11;99696.75;;;22.38;33.41
19576;BME280;41589;51.196;7.074;2022-07-06T16:31:11;99692.06;;;22.41;33.96
19576;BME280;41589;51.196;7.074;2022-07-06T16:36:12;99682.63;;;22.46;33.53
19576;BME280;41589;51.196;7.074;2022-07-06T16:41:19;99688.97;;;22.28;33.26
19576;BME280;41589;51.196;7.074;2022-07-06T16:46:54;99691.06;;;22.33;33.91
19576;BME280;41589;51.196;7.074;2022-07-06T16:51:54;99692.91;;;22.25;33.81
19576;BME280;41589;51.196;7.074;2022-07-06T16:56:54;99681.16;;;22.34;34.02
19576;BME280;41589;51.196;7.074;2022-07-06T17:01:55;99672.75;;;22.41;34.20
19576;BME280;41589;51.196;7.074;2022-07-06T17:06:56;99672.47;;;22.45;34.21
19576;BME280;41589;51.196;7.074;2022-07-06T17:11:56;99653.25;;;22.34;34.51
19576;BME280;41589;51.196;7.074;2022-07-06T17:16:57;99659.34;;;22.19;34.96
19576;BME280;41589;51.196;7.074;2022-07-06T17:22:05;99657.34;;;22.03;34.46
19576;BME280;41589;51.196;7.074;2022-07-06T17:27:06;99660.50;;;22.00;34.93
19576;BME280;41589;51.196;7.074;2022-07-06T17:32:07;99650.66;;;21.84;34.98
19576;BME280;41589;51.196;7.074;2022-07-06T17:37:08;99647.53;;;21.87;35.38
19576;BME280;41589;51.196;7.074;2022-07-06T17:42:09;99658.25;;;21.76;35.67
19576;BME280;41589;51.196;7.074;2022-07-06T17:47:10;99658.28;;;21.70;35.66
19576;BME280;41589;51.196;7.074;2022-07-06T17:52:10;99659.59;;;21.69;35.83
19576;BME280;41589;51.196;7.074;2022-07-06T17:57:18;99656.22;;;21.65;36.06
19576;BME280;41589;51.196;7.074;2022-07-06T18:02:19;99653.09;;;21.63;36.50
19576;BME280;41589;51.196;7.074;2022-07-06T18:07:20;99653.91;;;21.52;36.32
19576;BME280;41589;51.196;7.074;2022-07-06T18:12:21;99656.22;;;21.54;36.63
19576;BME280;41589;51.196;7.074;2022-07-06T18:17:22;99636.75;;;21.41;36.57
19576;BME280;41589;51.196;7.074;2022-07-06T18:22:24;99632.03;;;21.49;36.83
19576;BME280;41589;51.196;7.074;2022-07-06T18:27:26;99627.59;;;21.59;36.52
19576;BME280;41589;51.196;7.074;2022-07-06T18:32:26;99628.13;;;21.52;36.41
19576;BME280;41589;51.196;7.074;2022-07-06T18:37:26;99629.47;;;21.46;36.91
19576;BME280;41589;51.196;7.074;2022-07-06T18:42:27;99630.78;;;21.45;37.08
19576;BME280;41589;51.196;7.074;2022-07-06T18:47:27;99632.63;;;21.31;37.10
19576;BME280;41589;51.196;7.074;2022-07-06T18:52:31;99626.16;;;21.25;37.48
19576;BME280;41589;51.196;7.074;2022-07-06T18:57:34;99623.50;;;21.32;37.72
19576;BME280;41589;51.196;7.074;2022-07-06T19:02:35;99625.59;;;21.32;37.97
19576;BME280;41589;51.196;7.074;2022-07-06T19:07:35;99623.28;;;21.25;38.32
19576;BME280;41589;51.196;7.074;2022-07-06T19:12:36;99620.16;;;21.28;38.82
19576;BME280;41589;51.196;7.074;2022-07-06T19:17:38;99620.97;;;21.18;39.36
19576;BME280;41589;51.196;7.074;2022-07-06T19:22:41;99612.94;;;21.05;39.38
19576;BME280;41589;51.196;7.074;2022-07-06T19:27:41;99605.66;;;20.98;40.96
19576;BME280;41589;51.196;7.074;2022-07-06T19:32:42;99595.25;;;21.07;40.13
19576;BME280;41589;51.196;7.074;2022-07-06T19:37:42;99613.97;;;21.02;40.57
19576;BME280;41589;51.196;7.074;2022-07-06T19:42:43;99618.69;;;20.94;41.00
19576;BME280;41589;51.196;7.074;2022-07-06T19:47:43;99621.53;;;20.83;41.05
19576;BME280;41589;51.196;7.074;2022-07-06T19:52:43;99618.41;;;20.81;41.36
19576;BME280;41589;51.196;7.074;2022-07-06T19:57:44;99605.66;;;20.76;41.75
19576;BME280;41589;51.196;7.074;2022-07-06T20:02:44;99616.88;;;20.74;41.09
19576;BME280;41589;51.196;7.074;2022-07-06T20:07:44;99621.28;;;20.69;40.72
19576;BME280;41589;51.196;7.074;2022-07-06T20:12:45;99612.69;;;20.69;41.22
19576;BME280;41589;51.196;7.074;2022-07-06T20:17:45;99618.41;;;20.69;40.91
19576;BME280;41589;51.196;7.074;2022-07-06T20:22:45;99606.97;;;20.58;40.39
19576;BME280;41589;51.196;7.074;2022-07-06T20:27:46;99610.38;;;20.57;40.46
19576;BME280;41589;51.196;7.074;2022-07-06T20:32:46;99609.34;;;20.54;40.53
19576;BME280;41589;51.196;7.074;2022-07-06T20:37:47;99606.75;;;20.62;40.40
19576;BME280;41589;51.196;7.074;2022-07-06T20:42:47;99609.06;;;20.58;40.60
19576;BME280;41589;51.196;7.074;2022-07-06T20:47:49;99607.25;;;20.66;40.73
19576;BME280;41589;51.196;7.074;2022-07-06T20:52:50;99609.31;;;20.71;40.30
19576;BME280;41589;51.196;7.074;2022-07-06T20:57:50;99610.63;;;20.75;40.27
19576;BME280;41589;51.196;7.074;2022-07-06T21:02:51;99607.22;;;20.77;40.43
19576;BME280;41589;51.196;7.074;2022-07-06T21:07:51;99611.16;;;20.74;40.22
19576;BME280;41589;51.196;7.074;2022-07-06T21:12:51;99605.66;;;20.76;40.06
19576;BME280;41589;51.196;7.074;2022-07-06T21:17:52;99598.91;;;20.68;40.16
19576;BME280;41589;51.196;7.074;2022-07-06T21:22:52;99592.69;;;20.64;40.15
19576;BME280;41589;51.196;7.074;2022-07-06T21:27:53;99589.56;;;20.67;40.58
19576;BME280;41589;51.196;7.074;2022-07-06T21:32:53;99586.94;;;20.69;40.22
19576;BME280;41589;51.196;7.074;2022-07-06T21:37:53;99587.22;;;20.66;40.35
19576;BME280;41589;51.196;7.074;2022-07-06T21:42:54;99574.47;;;20.67;40.28
19576;BME280;41589;51.196;7.074;2022-07-06T21:47:54;99569.53;;;20.67;40.50
19576;BME280;41589;51.196;7.074;2022-07-06T21:52:55;99574.72;;;20.74;40.19
19576;BME280;41589;51.196;7.074;2022-07-06T21:57:55;99560.16;;;20.78;40.37
19576;BME280;41589;51.196;7.074;2022-07-06T22:02:56;99572.91;;;20.71;40.34
19576;BME280;41589;51.196;7.074;2022-07-06T22:07:56;99559.41;;;20.72;40.55
19576;BME280;41589;51.196;7.074;2022-07-06T22:12:57;99565.63;;;20.76;40.60
19576;BME280;41589;51.196;7.074;2022-07-06T22:17:57;99563.03;;;20.84;40.53
19576;BME280;41589;51.196;7.074;2022-07-06T22:22:57;99559.09;;;20.81;40.37
19576;BME280;41589;51.196;7.074;2022-07-06T22:27:59;99540.94;;;20.73;40.78
19576;BME280;41589;51.196;7.074;2022-07-06T22:32:59;99544.53;;;20.79;40.36
19576;BME280;41589;51.196;7.074;2022-07-06T22:37:59;99536.25;;;20.75;40.68
19576;BME280;41589;51.196;7.074;2022-07-06T22:43:00;99539.88;;;20.70;40.61
19576;BME280;41589;51.196;7.074;2022-07-06T22:48:00;99526.13;;;20.63;41.00
19576;BME280;41589;51.196;7.074;2022-07-06T22:53:00;99525.63;;;20.54;41.09
19576;BME280;41589;51.196;7.074;2022-07-06T22:58:01;99514.97;;;20.48;41.28
19576;BME280;41589;51.196;7.074;2022-07-06T23:03:01;99512.91;;;20.43;41.60
19576;BME280;41589;51.196;7.074;2022-07-06T23:08:02;99509.53;;;20.45;41.49
19576;BME280;41589;51.196;7.074;2022-07-06T23:13:03;99518.38;;;20.41;41.84
19576;BME280;41589;51.196;7.074;2022-07-06T23:18:03;99507.69;;;20.47;41.86
19576;BME280;41589;51.196;7.074;2022-07-06T23:23:03;99508.50;;;20.42;42.13
19576;BME280;41589;51.196;7.074;2022-07-06T23:28:04;99515.00;;;20.37;42.55
19576;BME280;41589;51.196;7.074;2022-07-06T23:33:04;99499.66;;;20.35;43.05
19576;BME280;41589;51.196;7.074;2022-07-06T23:38:05;99494.19;;;20.37;43.20
19576;BME280;41589;51.196;7.074;2022-07-06T23:43:06;99481.72;;;20.29;43.36
19576;BME280;41589;51.196;7.074;2022-07-06T23:48:06;99466.16;;;20.24;43.40
19576;BME280;41589;51.196;7.074;2022-07-06T23:53:07;99468.50;;;20.31;43.74
19576;BME280;41589;51.196;7.074;2022-07-06T23:58:07;99466.44;;;20.21;44.16
